sensor_id;sensor_type;location;lat;lon;timestamp;pressure;altitude;pressure_sealevel;temperature;humidity
54978;BME280;40873;47.522;19.106;2023-12-07T00:00:34;100135.78;;;0.29;100.00
54978;BME280;40873;47.522;19.106;2023-12-07T00:03:22;100132.47;;;0.22;100.00
54978;BME280;40873;47.522;19.106;2023-12-07T00:05:48;100133.28;;;0.24;100.00
54978;BME280;40873;47.522;19.106;2023-12-07T00:08:16;100137.72;;;0.19;100.00
54978;BME280;40873;47.522;19.106;2023-12-07T00:10:43;100135.06;;;0.22;100.00
54978;BME280;40873;47.522;19.106;2023-12-07T00:13:15;100137.84;;;0.14;100.00
54978;BME280;40873;47.522;19.106;2023-12-07T00:15:42;100135.16;;;0.17;100.00
54978;BME280;40873;47.522;19.106;2023-12-07T00:18:09;100130.06;;;0.13;100.00
54978;BME280;40873;47.522;19.106;2023-12-07T00:20:37;100129.94;;;0.19;100.00
54978;BME280;40873;47.522;19.106;2023-12-07T00:23:04;100128.94;;;0.24;100.00
54978;BME280;40873;47.522;19.106;2023-12-07T00:25:31;100134.91;;;0.30;100.00
54978;BME280;40873;47.522;19.106;2023-12-07T00:28:01;100125.28;;;0.33;100.00
54978;BME280;40873;47.522;19.106;2023-12-07T00:30:28;100127.97;;;0.30;100.00
54978;BME280;40873;47.522;19.106;2023-12-07T00:32:55;100126.28;;;0.27;100.00
54978;BME280;40873;47.522;19.106;2023-12-07T00:35:25;100133.25;;;0.25;100.00
54978;BME280;40873;47.522;19.106;2023-12-07T00:37:57;100128.88;;;0.27;100.00
54978;BME280;40873;47.522;19.106;2023-12-07T00:40:24;100134.94;;;0.26;100.00
54978;BME280;40873;47.522;19.106;2023-12-07T00:42:54;100134.94;;;0.28;100.00
54978;BME280;40873;47.522;19.106;2023-12-07T00:45:21;100132.19;;;0.34;100.00
54978;BME280;40873;47.522;19.106;2023-12-07T00:47:48;100129.75;;;0.28;100.00
54978;BME280;40873;47.522;19.106;2023-12-07T00:50:17;100129.72;;;0.30;100.00
54978;BME280;40873;47.522;19.106;2023-12-07T00:52:44;100135.84;;;0.25;100.00
54978;BME280;40873;47.522;19.106;2023-12-07T00:55:12;100134.09;;;0.26;100.00
54978;BME280;40873;47.522;19.106;2023-12-07T00:57:40;100135.84;;;0.25;100.00
54978;BME280;40873;47.522;19.106;2023-12-07T01:00:07;100135.78;;;0.29;100.00
54978;BME280;40873;47.522;19.106;2023-12-07T01:02:35;100140.84;;;0.33;100.00
54978;BME280;40873;47.522;19.106;2023-12-07T01:05:02;100131.38;;;0.32;100.00
54978;BME280;40873;47.522;19.106;2023-12-07T01:07:33;100127.94;;;0.32;100.00
54978;BME280;40873;47.522;19.106;2023-12-07T01:10:00;100122.72;;;0.32;100.00
54978;BME280;40873;47.522;19.106;2023-12-07T01:12:27;100125.16;;;0.39;100.00
54978;BME280;40873;47.522;19.106;2023-12-07T01:14:54;100126.09;;;0.37;100.00
54978;BME280;40873;47.522;19.106;2023-12-07T01:17:21;100132.13;;;0.37;100.00
54978;BME280;40873;47.522;19.106;2023-12-07T01:19:48;100127.78;;;0.38;100.00
54978;BME280;40873;47.522;19.106;2023-12-07T01:22:18;100124.44;;;0.33;100.00
54978;BME280;40873;47.522;19.106;2023-12-07T01:24:45;100128.88;;;0.27;100.00
54978;BME280;40873;47.522;19.106;2023-12-07T01:27:12;100127.88;;;0.33;100.00
54978;BME280;40873;47.522;19.106;2023-12-07T01:29:40;100126.19;;;0.32;100.00
54978;BME280;40873;47.522;19.106;2023-12-07T01:32:07;100118.66;;;0.21;100.00
54978;BME280;40873;47.522;19.106;2023-12-07T01:34:34;100121.16;;;0.24;100.00
54978;BME280;40873;47.522;19.106;2023-12-07T01:37:05;100123.03;;;0.18;100.00
54978;BME280;40873;47.522;19.106;2023-12-07T01:39:41;100116.94;;;0.19;100.00
54978;BME280;40873;47.522;19.106;2023-12-07T01:42:08;100114.28;;;0.23;100.00
54978;BME280;40873;47.522;19.106;2023-12-07T01:44:38;100121.34;;;0.17;100.00
54978;BME280;40873;47.522;19.106;2023-12-07T01:47:07;100118.66;;;0.21;100.00
54978;BME280;40873;47.522;19.106;2023-12-07T01:49:36;100118.81;;;0.12;100.00
54978;BME280;40873;47.522;19.106;2023-12-07T01:52:04;100119.38;;;0.26;100.00
54978;BME280;40873;47.522;19.106;2023-12-07T01:54:32;100114.19;;;0.26;100.00
54978;BME280;40873;47.522;19.106;2023-12-07T01:57:01;100117.63;;;0.27;100.00
54978;BME280;40873;47.522;19.106;2023-12-07T01:59:29;100121.09;;;0.27;100.00
54978;BME280;40873;47.522;19.106;2023-12-07T02:01:57;100127.06;;;0.31;100.00
54978;BME280;40873;47.522;19.106;2023-12-07T02:04:24;100115.03;;;0.27;100.00
54978;BME280;40873;47.522;19.106;2023-12-07T02:06:54;100125.38;;;0.30;100.00
54978;BME280;40873;47.522;19.106;2023-12-07T02:09:23;100125.34;;;0.32;100.00
54978;BME280;40873;47.522;19.106;2023-12-07T02:11:52;100123.69;;;0.27;100.00
54978;BME280;40873;47.522;19.106;2023-12-07T02:14:18;100119.31;;;0.30;100.00
54978;BME280;40873;47.522;19.106;2023-12-07T02:16:50;100103.72;;;0.31;100.00
54978;BME280;40873;47.522;19.106;2023-12-07T02:19:45;100112.34;;;0.32;100.00
54978;BME280;40873;47.522;19.106;2023-12-07T02:22:22;100108.72;;;0.39;100.00
54978;BME280;40873;47.522;19.106;2023-12-07T02:25:08;100117.28;;;0.44;100.00
54978;BME280;40873;47.522;19.106;2023-12-07T02:27:42;100112.19;;;0.39;100.00
54978;BME280;40873;47.522;19.106;2023-12-07T02:30:11;100116.56;;;0.37;100.00
54978;BME280;40873;47.522;19.106;2023-12-07T02:32:40;100124.34;;;0.37;100.00
54978;BME280;40873;47.522;19.106;2023-12-07T02:35:10;100119.22;;;0.34;100.00
54978;BME280;40873;47.522;19.106;2023-12-07T02:37:46;100120.78;;;0.41;100.00
54978;BME280;40873;47.522;19.106;2023-12-07T02:40:25;100118.22;;;0.40;100.00
54978;BME280;40873;47.522;19.106;2023-12-07T02:42:54;100119.16;;;0.37;100.00
54978;BME280;40873;47.522;19.106;2023-12-07T02:45:21;100125.25;;;0.35;100.00
54978;BME280;40873;47.522;19.106;2023-12-07T02:47:48;100121.81;;;0.34;100.00
54978;BME280;40873;47.522;19.106;2023-12-07T02:50:15;100120.00;;;0.38;100.00
54978;BME280;40873;47.522;19.106;2023-12-07T02:52:45;100121.66;;;0.42;100.00
54978;BME280;40873;47.522;19.106;2023-12-07T02:55:15;100125.09;;;0.42;100.00
54978;BME280;40873;47.522;19.106;2023-12-07T02:57:42;100122.53;;;0.41;100.00
54978;BME280;40873;47.522;19.106;2023-12-07T03:00:09;100121.84;;;0.33;100.00
54978;BME280;40873;47.522;19.106;2023-12-07T03:02:41;100132.13;;;0.37;100.00
54978;BME280;40873;47.522;19.106;2023-12-07T03:05:09;100125.28;;;0.33;100.00
54978;BME280;40873;47.522;19.106;2023-12-07T03:07:36;100123.53;;;0.35;100.00
54978;BME280;40873;47.522;19.106;2023-12-07T03:10:03;100123.34;;;0.43;100.00
54978;BME280;40873;47.522;19.106;2023-12-07T03:12:31;100128.56;;;0.41;100.00
54978;BME280;40873;47.522;19.106;2023-12-07T03:14:58;100131.91;;;0.46;100.00
54978;BME280;40873;47.522;19.106;2023-12-07T03:17:25;100136.38;;;0.40;100.00
54978;BME280;40873;47.522;19.106;2023-12-07T03:19:55;100131.97;;;0.45;100.00
54978;BME280;40873;47.522;19.106;2023-12-07T03:22:23;100126.91;;;0.39;100.00
54978;BME280;40873;47.522;19.106;2023-12-07T03:24:55;100142.50;;;0.37;100.00
54978;BME280;40873;47.522;19.106;2023-12-07T03:27:22;100139.88;;;0.39;100.00
54978;BME280;40873;47.522;19.106;2023-12-07T03:29:49;100150.25;;;0.39;100.00
54978;BME280;40873;47.522;19.106;2023-12-07T03:32:18;100145.91;;;0.39;100.00
54978;BME280;40873;47.522;19.106;2023-12-07T03:34:46;100145.88;;;0.42;100.00
54978;BME280;40873;47.522;19.106;2023-12-07T03:37:13;100150.09;;;0.46;100.00
54978;BME280;40873;47.522;19.106;2023-12-07T03:39:40;100150.03;;;0.48;100.00
54978;BME280;40873;47.522;19.106;2023-12-07T03:42:10;100146.63;;;0.46;100.00
54978;BME280;40873;47.522;19.106;2023-12-07T03:44:57;100144.13;;;0.43;100.00
54978;BME280;40873;47.522;19.106;2023-12-07T03:47:24;100152.72;;;0.45;100.00
54978;BME280;40873;47.522;19.106;2023-12-07T03:49:52;100155.13;;;0.52;100.00
54978;BME280;40873;47.522;19.106;2023-12-07T03:52:19;100156.13;;;0.47;100.00
54978;BME280;40873;47.522;19.106;2023-12-07T03:54:46;100150.88;;;0.50;100.00
54978;BME280;40873;47.522;19.106;2023-12-07T03:57:13;100153.63;;;0.44;100.00
54978;BME280;40873;47.522;19.106;2023-12-07T03:59:40;100153.53;;;0.47;100.00
54978;BME280;40873;47.522;19.106;2023-12-07T04:02:07;100158.00;;;0.42;100.00
54978;BME280;40873;47.522;19.106;2023-12-07T04:04:34;100157.94;;;0.43;100.00
54978;BME280;40873;47.522;19.106;2023-12-07T04:07:01;100163.75;;;0.54;100.00
54978;BME280;40873;47.522;19.106;2023-12-07T04:09:29;100166.41;;;0.51;100.00
54978;BME280;40873;47.522;19.106;2023-12-07T04:11:57;100169.78;;;0.55;100.00
54978;BME280;40873;47.522;19.106;2023-12-07T04:14:24;100165.91;;;0.34;100.00
54978;BME280;40873;47.522;19.106;2023-12-07T04:16:56;100167.59;;;0.37;100.00
54978;BME280;40873;47.522;19.106;2023-12-07T04:19:23;100167.44;;;0.44;100.00
54978;BME280;40873;47.522;19.106;2023-12-07T04:21:50;100164.88;;;0.43;100.00
54978;BME280;40873;47.522;19.106;2023-12-07T04:24:20;100166.63;;;0.42;100.00
54978;BME280;40873;47.522;19.106;2023-12-07T04:26:50;100172.59;;;0.46;100.00
54978;BME280;40873;47.522;19.106;2023-12-07T04:29:16;100174.44;;;0.41;100.00
54978;BME280;40873;47.522;19.106;2023-12-07T04:31:43;100178.03;;;0.35;100.00
54978;BME280;40873;47.522;19.106;2023-12-07T04:34:13;100184.19;;;0.30;100.00
54978;BME280;40873;47.522;19.106;2023-12-07T04:36:42;100182.50;;;0.29;100.00
54978;BME280;40873;47.522;19.106;2023-12-07T04:39:09;100185.78;;;0.37;100.00
54978;BME280;40873;47.522;19.106;2023-12-07T04:41:36;100187.47;;;0.38;100.00
54978;BME280;40873;47.522;19.106;2023-12-07T04:44:03;100189.13;;;0.42;100.00
54978;BME280;40873;47.522;19.106;2023-12-07T04:46:32;100174.44;;;0.41;100.00
54978;BME280;40873;47.522;19.106;2023-12-07T04:49:00;100181.34;;;0.40;100.00
54978;BME280;40873;47.522;19.106;2023-12-07T04:51:27;100193.81;;;0.24;100.00
54978;BME280;40873;47.522;19.106;2023-12-07T04:53:54;100192.91;;;0.25;100.00
54978;BME280;40873;47.522;19.106;2023-12-07T04:56:42;100187.69;;;0.29;100.00
54978;BME280;40873;47.522;19.106;2023-12-07T04:59:11;100198.72;;;0.38;100.00
54978;BME280;40873;47.522;19.106;2023-12-07T05:01:39;100203.19;;;0.32;100.00
54978;BME280;40873;47.522;19.106;2023-12-07T05:04:06;100199.00;;;0.24;100.00
54978;BME280;40873;47.522;19.106;2023-12-07T05:06:34;100199.19;;;0.14;100.00
54978;BME280;40873;47.522;19.106;2023-12-07T05:09:02;100194.69;;;0.23;100.00
54978;BME280;40873;47.522;19.106;2023-12-07T05:11:36;100205.94;;;0.24;100.00
54978;BME280;40873;47.522;19.106;2023-12-07T05:14:04;100211.25;;;0.18;100.00
54978;BME280;40873;47.522;19.106;2023-12-07T05:16:31;100211.31;;;0.15;100.00
54978;BME280;40873;47.522;19.106;2023-12-07T05:19:01;100215.72;;;0.10;100.00
54978;BME280;40873;47.522;19.106;2023-12-07T05:21:32;100214.97;;;0.05;100.00
54978;BME280;40873;47.522;19.106;2023-12-07T05:23:59;100211.56;;;0.03;100.00
54978;BME280;40873;47.522;19.106;2023-12-07T05:26:27;100222.84;;;-0.02;100.00
54978;BME280;40873;47.522;19.106;2023-12-07T05:28:53;100227.03;;;0.07;100.00
54978;BME280;40873;47.522;19.106;2023-12-07T05:31:24;100234.91;;;0.03;100.00
54978;BME280;40873;47.522;19.106;2023-12-07T05:33:53;100236.53;;;0.08;100.00
54978;BME280;40873;47.522;19.106;2023-12-07T05:36:23;100232.03;;;0.16;100.00
54978;BME280;40873;47.522;19.106;2023-12-07T05:38:49;100232.84;;;0.18;100.00
54978;BME280;40873;47.522;19.106;2023-12-07T05:41:17;100238.06;;;0.17;100.00
54978;BME280;40873;47.522;19.106;2023-12-07T05:43:44;100238.84;;;0.22;100.00
54978;BME280;40873;47.522;19.106;2023-12-07T05:46:11;100242.94;;;0.32;100.00
54978;BME280;40873;47.522;19.106;2023-12-07T05:48:38;100234.50;;;0.22;100.00
54978;BME280;40873;47.522;19.106;2023-12-07T05:51:05;100236.25;;;0.22;100.00
54978;BME280;40873;47.522;19.106;2023-12-07T05:53:33;100243.19;;;0.21;100.00
54978;BME280;40873;47.522;19.106;2023-12-07T05:56:01;100253.56;;;0.21;100.00
54978;BME280;40873;47.522;19.106;2023-12-07T05:58:30;100246.50;;;0.28;100.00
54978;BME280;40873;47.522;19.106;2023-12-07T06:00:58;100246.44;;;0.31;100.00
54978;BME280;40873;47.522;19.106;2023-12-07T06:03:26;100259.38;;;0.33;100.00
54978;BME280;40873;47.522;19.106;2023-12-07T06:05:55;100251.53;;;0.36;100.00
54978;BME280;40873;47.522;19.106;2023-12-07T06:08:22;100257.63;;;0.33;100.00
54978;BME280;40873;47.522;19.106;2023-12-07T06:10:49;100260.97;;;0.40;100.00
54978;BME280;40873;47.522;19.106;2023-12-07T06:13:18;100253.28;;;0.34;100.00
54978;BME280;40873;47.522;19.106;2023-12-07T06:15:47;100259.38;;;0.33;100.00
54978;BME280;40873;47.522;19.106;2023-12-07T06:18:14;100265.56;;;0.25;100.00
54978;BME280;40873;47.522;19.106;2023-12-07T06:20:43;100266.34;;;0.31;100.00
54978;BME280;40873;47.522;19.106;2023-12-07T06:23:10;100262.81;;;0.33;100.00
54978;BME280;40873;47.522;19.106;2023-12-07T06:25:39;100265.38;;;0.35;100.00
54978;BME280;40873;47.522;19.106;2023-12-07T06:28:07;100269.88;;;0.28;100.00
54978;BME280;40873;47.522;19.106;2023-12-07T06:30:36;100273.94;;;0.40;100.00
54978;BME280;40873;47.522;19.106;2023-12-07T06:33:02;100281.66;;;0.44;100.00
54978;BME280;40873;47.522;19.106;2023-12-07T06:35:30;100272.03;;;0.48;100.00
54978;BME280;40873;47.522;19.106;2023-12-07T06:37:57;100279.81;;;0.48;100.00
54978;BME280;40873;47.522;19.106;2023-12-07T06:40:24;100288.47;;;0.50;100.00
54978;BME280;40873;47.522;19.106;2023-12-07T06:42:54;100288.56;;;0.44;100.00
54978;BME280;40873;47.522;19.106;2023-12-07T06:45:24;100289.19;;;0.55;100.00
54978;BME280;40873;47.522;19.106;2023-12-07T06:47:51;100297.94;;;0.51;100.00
54978;BME280;40873;47.522;19.106;2023-12-07T06:50:21;100298.00;;;0.48;100.00
54978;BME280;40873;47.522;19.106;2023-12-07T06:52:50;100296.91;;;0.60;100.00
54978;BME280;40873;47.522;19.106;2023-12-07T06:55:17;100302.09;;;0.60;100.00
54978;BME280;40873;47.522;19.106;2023-12-07T06:57:45;100304.72;;;0.58;100.00
54978;BME280;40873;47.522;19.106;2023-12-07T07:00:16;100311.75;;;0.53;100.00
54978;BME280;40873;47.522;19.106;2023-12-07T07:02:49;100311.81;;;0.48;100.00
54978;BME280;40873;47.522;19.106;2023-12-07T07:05:16;100310.03;;;0.52;100.00
54978;BME280;40873;47.522;19.106;2023-12-07T07:07:43;100306.63;;;0.50;100.00
54978;BME280;40873;47.522;19.106;2023-12-07T07:10:13;100309.09;;;0.56;100.00
54978;BME280;40873;47.522;19.106;2023-12-07T07:12:43;100309.06;;;0.58;100.00
54978;BME280;40873;47.522;19.106;2023-12-07T07:15:10;100321.13;;;0.60;100.00
54978;BME280;40873;47.522;19.106;2023-12-07T07:17:36;100309.00;;;0.61;100.00
54978;BME280;40873;47.522;19.106;2023-12-07T07:20:04;100321.19;;;0.57;100.00
54978;BME280;40873;47.522;19.106;2023-12-07T07:22:32;100319.50;;;0.56;100.00
54978;BME280;40873;47.522;19.106;2023-12-07T07:24:59;100317.75;;;0.57;100.00
54978;BME280;40873;47.522;19.106;2023-12-07T07:27:26;100319.41;;;0.59;100.00
54978;BME280;40873;47.522;19.106;2023-12-07T07:29:53;100320.16;;;0.66;100.00
54978;BME280;40873;47.522;19.106;2023-12-07T07:32:20;100321.06;;;0.62;100.00
54978;BME280;40873;47.522;19.106;2023-12-07T07:34:47;100323.69;;;0.62;100.00
54978;BME280;40873;47.522;19.106;2023-12-07T07:37:14;100326.28;;;0.62;100.00
54978;BME280;40873;47.522;19.106;2023-12-07T07:39:41;100328.88;;;0.63;100.00
54978;BME280;40873;47.522;19.106;2023-12-07T07:42:08;100333.19;;;0.63;100.00
54978;BME280;40873;47.522;19.106;2023-12-07T07:44:35;100327.13;;;0.64;100.00
54978;BME280;40873;47.522;19.106;2023-12-07T07:47:05;100335.81;;;0.61;100.00
54978;BME280;40873;47.522;19.106;2023-12-07T07:49:35;100336.66;;;0.63;100.00
54978;BME280;40873;47.522;19.106;2023-12-07T07:52:05;100346.25;;;0.58;100.00
54978;BME280;40873;47.522;19.106;2023-12-07T07:54:32;100348.78;;;0.61;100.00
54978;BME280;40873;47.522;19.106;2023-12-07T07:57:02;100347.16;;;0.57;100.00
54978;BME280;40873;47.522;19.106;2023-12-07T07:59:29;100347.97;;;0.59;100.00
54978;BME280;40873;47.522;19.106;2023-12-07T08:01:57;100347.91;;;0.62;100.00
54978;BME280;40873;47.522;19.106;2023-12-07T08:04:24;100345.22;;;0.67;100.00
54978;BME280;40873;47.522;19.106;2023-12-07T08:06:51;100351.19;;;0.72;100.00
54978;BME280;40873;47.522;19.106;2023-12-07T08:09:21;100349.56;;;0.66;100.00
54978;BME280;40873;47.522;19.106;2023-12-07T08:11:48;100351.22;;;0.69;100.00
54978;BME280;40873;47.522;19.106;2023-12-07T08:14:16;100350.38;;;0.68;100.00
54978;BME280;40873;47.522;19.106;2023-12-07T08:16:45;100349.56;;;0.66;100.00
54978;BME280;40873;47.522;19.106;2023-12-07T08:19:13;100351.19;;;0.72;100.00
54978;BME280;40873;47.522;19.106;2023-12-07T08:21:42;100355.50;;;0.73;100.00
54978;BME280;40873;47.522;19.106;2023-12-07T08:24:09;100357.38;;;0.65;100.00
54978;BME280;40873;47.522;19.106;2023-12-07T08:26:36;100357.34;;;0.66;100.00
54978;BME280;40873;47.522;19.106;2023-12-07T08:29:03;100358.13;;;0.71;100.00
54978;BME280;40873;47.522;19.106;2023-12-07T08:31:33;100362.34;;;0.77;100.00
54978;BME280;40873;47.522;19.106;2023-12-07T08:34:00;100358.78;;;0.81;100.00
54978;BME280;40873;47.522;19.106;2023-12-07T08:36:27;100362.19;;;0.83;100.00
54978;BME280;40873;47.522;19.106;2023-12-07T08:38:54;100359.56;;;0.86;100.00
54978;BME280;40873;47.522;19.106;2023-12-07T08:41:22;100354.28;;;0.91;100.00
54978;BME280;40873;47.522;19.106;2023-12-07T08:43:49;100362.16;;;0.86;100.00
54978;BME280;40873;47.522;19.106;2023-12-07T08:46:16;100360.28;;;0.93;100.00
54978;BME280;40873;47.522;19.106;2023-12-07T08:48:43;100353.09;;;1.04;100.00
54978;BME280;40873;47.522;19.106;2023-12-07T08:51:15;100360.97;;;1.01;100.00
54978;BME280;40873;47.522;19.106;2023-12-07T08:53:42;100361.94;;;0.95;100.00
54978;BME280;40873;47.522;19.106;2023-12-07T08:56:09;100367.09;;;0.98;100.00
54978;BME280;40873;47.522;19.106;2023-12-07T08:58:38;100365.34;;;0.99;100.00
54978;BME280;40873;47.522;19.106;2023-12-07T09:01:08;100366.97;;;1.04;100.00
54978;BME280;40873;47.522;19.106;2023-12-07T09:03:45;100363.38;;;1.10;100.00
54978;BME280;40873;47.522;19.106;2023-12-07T09:06:14;100362.22;;;1.23;100.00
54978;BME280;40873;47.522;19.106;2023-12-07T09:08:43;100368.31;;;1.22;100.00
54978;BME280;40873;47.522;19.106;2023-12-07T09:11:10;100364.78;;;1.25;100.00
54978;BME280;40873;47.522;19.106;2023-12-07T09:13:37;100368.41;;;1.18;100.00
54978;BME280;40873;47.522;19.106;2023-12-07T09:16:05;100371.13;;;1.13;100.00
54978;BME280;40873;47.522;19.106;2023-12-07T09:18:33;100377.13;;;1.15;100.00
54978;BME280;40873;47.522;19.106;2023-12-07T09:21:05;100363.09;;;1.22;100.00
54978;BME280;40873;47.522;19.106;2023-12-07T09:23:33;100369.81;;;1.32;100.00
54978;BME280;40873;47.522;19.106;2023-12-07T09:26:01;100368.94;;;1.33;100.00
54978;BME280;40873;47.522;19.106;2023-12-07T09:28:31;100365.31;;;1.39;100.00
54978;BME280;40873;47.522;19.106;2023-12-07T09:31:00;100369.56;;;1.43;100.00
54978;BME280;40873;47.522;19.106;2023-12-07T09:33:31;100364.41;;;1.42;100.00
54978;BME280;40873;47.522;19.106;2023-12-07T09:35:59;100362.84;;;1.34;100.00
54978;BME280;40873;47.522;19.106;2023-12-07T09:38:26;100367.16;;;1.35;100.00
54978;BME280;40873;47.522;19.106;2023-12-07T09:40:53;100359.38;;;1.34;100.00
54978;BME280;40873;47.522;19.106;2023-12-07T09:43:21;100365.25;;;1.42;100.00
54978;BME280;40873;47.522;19.106;2023-12-07T09:45:49;100361.06;;;1.36;100.00
54978;BME280;40873;47.522;19.106;2023-12-07T09:48:19;100366.16;;;1.41;100.00
54978;BME280;40873;47.522;19.106;2023-12-07T09:50:47;100358.22;;;1.46;100.00
54978;BME280;40873;47.522;19.106;2023-12-07T09:53:15;100354.78;;;1.47;100.00
54978;BME280;40873;47.522;19.106;2023-12-07T09:55:42;100358.09;;;1.52;100.00
54978;BME280;40873;47.522;19.106;2023-12-07T09:58:09;100358.84;;;1.57;100.00
54978;BME280;40873;47.522;19.106;2023-12-07T10:00:36;100364.16;;;1.52;100.00
54978;BME280;40873;47.522;19.106;2023-12-07T10:03:06;100361.53;;;1.54;100.00
54978;BME280;40873;47.522;19.106;2023-12-07T10:06:04;100367.59;;;1.54;100.00
54978;BME280;40873;47.522;19.106;2023-12-07T10:08:33;100360.78;;;1.49;100.00
54978;BME280;40873;47.522;19.106;2023-12-07T10:11:10;100364.06;;;1.57;100.00
54978;BME280;40873;47.522;19.106;2023-12-07T10:13:39;100373.75;;;1.50;100.00
54978;BME280;40873;47.522;19.106;2023-12-07T10:16:13;100362.53;;;1.48;100.00
54978;BME280;40873;47.522;19.106;2023-12-07T10:18:43;100360.75;;;1.50;100.00
54978;BME280;40873;47.522;19.106;2023-12-07T10:21:12;100354.69;;;1.50;100.00
54978;BME280;40873;47.522;19.106;2023-12-07T10:23:41;100361.69;;;1.48;100.00
54978;BME280;40873;47.522;19.106;2023-12-07T10:26:10;100359.75;;;1.56;100.00
54978;BME280;40873;47.522;19.106;2023-12-07T10:28:45;100365.09;;;1.50;100.00
54978;BME280;40873;47.522;19.106;2023-12-07T10:31:18;100361.63;;;1.49;100.00
54978;BME280;40873;47.522;19.106;2023-12-07T10:33:48;100364.81;;;1.62;100.00
54978;BME280;40873;47.522;19.106;2023-12-07T10:36:15;100362.97;;;1.65;100.00
54978;BME280;40873;47.522;19.106;2023-12-07T10:38:45;100365.56;;;1.67;100.00
54978;BME280;40873;47.522;19.106;2023-12-07T10:41:15;100362.91;;;1.69;100.00
54978;BME280;40873;47.522;19.106;2023-12-07T10:43:44;100366.34;;;1.71;100.00
54978;BME280;40873;47.522;19.106;2023-12-07T10:46:15;100368.84;;;1.74;100.00
54978;BME280;40873;47.522;19.106;2023-12-07T10:48:48;100362.88;;;1.70;100.00
54978;BME280;40873;47.522;19.106;2023-12-07T10:51:34;100370.59;;;1.73;100.00
54978;BME280;40873;47.522;19.106;2023-12-07T10:54:06;100371.63;;;1.68;100.00
54978;BME280;40873;47.522;19.106;2023-12-07T10:56:39;100365.81;;;1.56;100.00
54978;BME280;40873;47.522;19.106;2023-12-07T10:59:11;100367.56;;;1.56;100.00
54978;BME280;40873;47.522;19.106;2023-12-07T11:01:56;100373.84;;;1.46;100.00
54978;BME280;40873;47.522;19.106;2023-12-07T11:04:27;100369.53;;;1.46;100.00
54978;BME280;40873;47.522;19.106;2023-12-07T11:07:00;100374.78;;;1.43;100.00
54978;BME280;40873;47.522;19.106;2023-12-07T11:09:35;100373.16;;;1.37;100.00
54978;BME280;40873;47.522;19.106;2023-12-07T11:12:13;100384.34;;;1.41;100.00
54978;BME280;40873;47.522;19.106;2023-12-07T11:14:46;100379.94;;;1.45;100.00
54978;BME280;40873;47.522;19.106;2023-12-07T11:17:15;100376.53;;;1.43;100.00
54978;BME280;40873;47.522;19.106;2023-12-07T11:19:46;100382.53;;;1.45;100.00
54978;BME280;40873;47.522;19.106;2023-12-07T11:22:14;100380.59;;;1.53;100.00
54978;BME280;40873;47.522;19.106;2023-12-07T11:24:57;100376.97;;;1.60;100.00
54978;BME280;40873;47.522;19.106;2023-12-07T11:27:32;100382.16;;;1.61;100.00
54978;BME280;40873;47.522;19.106;2023-12-07T11:30:00;100379.56;;;1.61;100.00
54978;BME280;40873;47.522;19.106;2023-12-07T11:32:28;100387.19;;;1.69;100.00
54978;BME280;40873;47.522;19.106;2023-12-07T11:35:01;100387.25;;;1.66;100.00
54978;BME280;40873;47.522;19.106;2023-12-07T11:40:30;100380.41;;;1.62;100.00
54978;BME280;40873;47.522;19.106;2023-12-07T11:42:59;100379.44;;;1.68;100.00
54978;BME280;40873;47.522;19.106;2023-12-07T11:45:39;100379.47;;;1.64;100.00
54978;BME280;40873;47.522;19.106;2023-12-07T11:48:10;100374.22;;;1.68;100.00
54978;BME280;40873;47.522;19.106;2023-12-07T11:50:57;100378.56;;;1.67;100.00
54978;BME280;40873;47.522;19.106;2023-12-07T11:53:26;100377.63;;;1.70;100.00
54978;BME280;40873;47.522;19.106;2023-12-07T11:55:54;100382.75;;;1.73;100.00
54978;BME280;40873;47.522;19.106;2023-12-07T11:58:21;100374.22;;;1.68;100.00
54978;BME280;40873;47.522;19.106;2023-12-07T12:00:51;100381.09;;;1.70;100.00
54978;BME280;40873;47.522;19.106;2023-12-07T12:03:19;100379.44;;;1.66;100.00
54978;BME280;40873;47.522;19.106;2023-12-07T12:05:47;100378.47;;;1.70;100.00
54978;BME280;40873;47.522;19.106;2023-12-07T12:08:16;100384.72;;;1.63;100.00
54978;BME280;40873;47.522;19.106;2023-12-07T12:10:45;100391.56;;;1.67;100.00
54978;BME280;40873;47.522;19.106;2023-12-07T12:13:16;100389.75;;;1.71;100.00
54978;BME280;40873;47.522;19.106;2023-12-07T12:15:43;100387.00;;;1.77;100.00
54978;BME280;40873;47.522;19.106;2023-12-07T12:18:10;100385.16;;;1.80;100.00
54978;BME280;40873;47.522;19.106;2023-12-07T12:20:40;100393.00;;;1.79;100.00
54978;BME280;40873;47.522;19.106;2023-12-07T12:23:07;100395.09;;;1.64;100.00
54978;BME280;40873;47.522;19.106;2023-12-07T12:25:34;100400.19;;;1.69;100.00
54978;BME280;40873;47.522;19.106;2023-12-07T12:28:05;100393.28;;;1.68;100.00
54978;BME280;40873;47.522;19.106;2023-12-07T12:30:34;100402.78;;;1.69;100.00
54978;BME280;40873;47.522;19.106;2023-12-07T12:33:02;100399.53;;;1.59;100.00
54978;BME280;40873;47.522;19.106;2023-12-07T12:35:29;100400.38;;;1.60;100.00
54978;BME280;40873;47.522;19.106;2023-12-07T12:37:57;100397.94;;;1.52;100.00
54978;BME280;40873;47.522;19.106;2023-12-07T12:40:28;100399.75;;;1.50;100.00
54978;BME280;40873;47.522;19.106;2023-12-07T12:43:01;100396.50;;;1.41;100.00
54978;BME280;40873;47.522;19.106;2023-12-07T12:45:29;100404.16;;;1.47;100.00
54978;BME280;40873;47.522;19.106;2023-12-07T12:47:59;100407.75;;;1.41;100.00
54978;BME280;40873;47.522;19.106;2023-12-07T12:50:39;100404.53;;;1.30;100.00
54978;BME280;40873;47.522;19.106;2023-12-07T12:53:09;100410.41;;;1.38;100.00